Aviation Digital Data Service (ADDS)

Output produced by METARs form (2149 UTC 08 August 2020)
found at http://www.aviationweather.gov/metar/data/
 
METAR text: OERK 082100Z 30005KT CAVOK 33/04 Q1003 NOSIG
Conditions at: OERK (RIYADH/KING KHAL, SA) observed 2100 UTC 08 August 2020
Temperature: 33.0°C (91°F)
Dewpoint: 4.0°C (39°F) [RH = 16%]
Pressure (altimeter): 29.62 inches Hg (1003.0 mb)
Winds: from the WNW (300 degrees) at 6 MPH (5 knots; 2.6 m/s)
Visibility: 6 or more miles (10+ km)
Ceiling: ceiling and visibility are OK
Clouds: unknown
Weather: no significant weather observed at this time

METAR text: OERK 082000Z 33005KT CAVOK 35/04 Q1003 NOSIG
Conditions at: OERK (RIYADH/KING KHAL, SA) observed 2000 UTC 08 August 2020
Temperature: 35.0°C (95°F)
Dewpoint: 4.0°C (39°F) [RH = 14%]
Pressure (altimeter): 29.62 inches Hg (1003.0 mb)
Winds: from the NNW (330 degrees) at 6 MPH (5 knots; 2.6 m/s)
Visibility: 6 or more miles (10+ km)
Ceiling: ceiling and visibility are OK
Clouds: unknown
Weather: no significant weather observed at this time

METAR text: OERK 081900Z 35006KT CAVOK 36/04 Q1003 NOSIG
Conditions at: OERK (RIYADH/KING KHAL, SA) observed 1900 UTC 08 August 2020
Temperature: 36.0°C (97°F)
Dewpoint: 4.0°C (39°F) [RH = 14%]
Pressure (altimeter): 29.62 inches Hg (1003.0 mb)
Winds: from the N (350 degrees) at 7 MPH (6 knots; 3.1 m/s)
Visibility: 6 or more miles (10+ km)
Ceiling: ceiling and visibility are OK
Clouds: unknown
Weather: no significant weather observed at this time

METAR text: OERK 081800Z 35007KT CAVOK 37/04 Q1003 TEMPO 5000 BLDU
Conditions at: OERK (RIYADH/KING KHAL, SA) observed 1800 UTC 08 August 2020
Temperature: 37.0°C (99°F)
Dewpoint: 4.0°C (39°F) [RH = 13%]
Pressure (altimeter): 29.62 inches Hg (1003.0 mb)
Winds: from the N (350 degrees) at 8 MPH (7 knots; 3.6 m/s)
Visibility: 6 or more miles (10+ km)
Ceiling: ceiling and visibility are OK
Clouds: unknown
Weather: no significant weather observed at this time

METAR text: OERK 081700Z 33009KT CAVOK 38/03 Q1002 TEMPO 5000 BLDU
Conditions at: OERK (RIYADH/KING KHAL, SA) observed 1700 UTC 08 August 2020
Temperature: 38.0°C (100°F)
Dewpoint: 3.0°C (37°F) [RH = 11%]
Pressure (altimeter): 29.59 inches Hg (1002.0 mb)
Winds: from the NNW (330 degrees) at 10 MPH (9 knots; 4.6 m/s)
Visibility: 6 or more miles (10+ km)
Ceiling: ceiling and visibility are OK
Clouds: unknown
Weather: no significant weather observed at this time

METAR text: OERK 081600Z 33007KT CAVOK 39/04 Q1002 TEMPO 5000 BLDU
Conditions at: OERK (RIYADH/KING KHAL, SA) observed 1600 UTC 08 August 2020
Temperature: 39.0°C (102°F)
Dewpoint: 4.0°C (39°F) [RH = 12%]
Pressure (altimeter): 29.59 inches Hg (1002.0 mb)
Winds: from the NNW (330 degrees) at 8 MPH (7 knots; 3.6 m/s)
Visibility: 6 or more miles (10+ km)
Ceiling: ceiling and visibility are OK
Clouds: unknown
Weather: no significant weather observed at this time

METAR text: OERK 081500Z 32010KT CAVOK 41/02 Q1001 TEMPO 5000 BLDU
Conditions at: OERK (RIYADH/KING KHAL, SA) observed 1500 UTC 08 August 2020
Temperature: 41.0°C (106°F)
Dewpoint: 2.0°C (36°F) [RH =  9%]
Pressure (altimeter): 29.56 inches Hg (1001.0 mb)
Winds: from the NW (320 degrees) at 12 MPH (10 knots; 5.1 m/s)
Visibility: 6 or more miles (10+ km)
Ceiling: ceiling and visibility are OK
Clouds: unknown
Weather: no significant weather observed at this time

METAR text: OERK 081400Z 36009KT CAVOK 42/04 Q1001 NOSIG
Conditions at: OERK (RIYADH/KING KHAL, SA) observed 1400 UTC 08 August 2020
Temperature: 42.0°C (108°F)
Dewpoint: 4.0°C (39°F) [RH = 10%]
Pressure (altimeter): 29.56 inches Hg (1001.0 mb)
Winds: from the N (360 degrees) at 10 MPH (9 knots; 4.6 m/s)
Visibility: 6 or more miles (10+ km)
Ceiling: ceiling and visibility are OK
Clouds: unknown
Weather: no significant weather observed at this time

METAR text: OERK 081300Z 33010KT CAVOK 43/02 Q1001 NOSIG
Conditions at: OERK (RIYADH/KING KHAL, SA) observed 1300 UTC 08 August 2020
Temperature: 43.0°C (109°F)
Dewpoint: 2.0°C (36°F) [RH =  8%]
Pressure (altimeter): 29.56 inches Hg (1001.0 mb)
Winds: from the NNW (330 degrees) at 12 MPH (10 knots; 5.1 m/s)
Visibility: 6 or more miles (10+ km)
Ceiling: ceiling and visibility are OK
Clouds: unknown
Weather: no significant weather observed at this time

METAR text: OERK 081200Z 36012KT CAVOK 42/03 Q1001 NOSIG
Conditions at: OERK (RIYADH/KING KHAL, SA) observed 1200 UTC 08 August 2020
Temperature: 42.0°C (108°F)
Dewpoint: 3.0°C (37°F) [RH =  9%]
Pressure (altimeter): 29.56 inches Hg (1001.0 mb)
Winds: from the N (360 degrees) at 14 MPH (12 knots; 6.2 m/s)
Visibility: 6 or more miles (10+ km)
Ceiling: ceiling and visibility are OK
Clouds: unknown
Weather: no significant weather observed at this time

METAR text: OERK 081100Z 33009KT CAVOK 43/05 Q1001 NOSIG
Conditions at: OERK (RIYADH/KING KHAL, SA) observed 1100 UTC 08 August 2020
Temperature: 43.0°C (109°F)
Dewpoint: 5.0°C (41°F) [RH = 10%]
Pressure (altimeter): 29.56 inches Hg (1001.0 mb)
Winds: from the NNW (330 degrees) at 10 MPH (9 knots; 4.6 m/s)
Visibility: 6 or more miles (10+ km)
Ceiling: ceiling and visibility are OK
Clouds: unknown
Weather: no significant weather observed at this time

METAR text: OERK 081000Z 33008KT CAVOK 42/07 Q1002 NOSIG
Conditions at: OERK (RIYADH/KING KHAL, SA) observed 1000 UTC 08 August 2020
Temperature: 42.0°C (108°F)
Dewpoint: 7.0°C (45°F) [RH = 12%]
Pressure (altimeter): 29.59 inches Hg (1002.0 mb)
Winds: from the NNW (330 degrees) at 9 MPH (8 knots; 4.1 m/s)
Visibility: 6 or more miles (10+ km)
Ceiling: ceiling and visibility are OK
Clouds: unknown
Weather: no significant weather observed at this time

METAR text: OERK 080900Z 34009KT CAVOK 43/06 Q1002 NOSIG
Conditions at: OERK (RIYADH/KING KHAL, SA) observed 0900 UTC 08 August 2020
Temperature: 43.0°C (109°F)
Dewpoint: 6.0°C (43°F) [RH = 11%]
Pressure (altimeter): 29.59 inches Hg (1002.0 mb)
Winds: from the NNW (340 degrees) at 10 MPH (9 knots; 4.6 m/s)
Visibility: 6 or more miles (10+ km)
Ceiling: ceiling and visibility are OK
Clouds: unknown
Weather: no significant weather observed at this time

METAR text: OERK 080800Z 36012KT CAVOK 41/04 Q1003 NOSIG
Conditions at: OERK (RIYADH/KING KHAL, SA) observed 0800 UTC 08 August 2020
Temperature: 41.0°C (106°F)
Dewpoint: 4.0°C (39°F) [RH = 10%]
Pressure (altimeter): 29.62 inches Hg (1003.0 mb)
Winds: from the N (360 degrees) at 14 MPH (12 knots; 6.2 m/s)
Visibility: 6 or more miles (10+ km)
Ceiling: ceiling and visibility are OK
Clouds: unknown
Weather: no significant weather observed at this time

METAR text: OERK 080700Z 35008KT CAVOK 40/05 Q1003 NOSIG
Conditions at: OERK (RIYADH/KING KHAL, SA) observed 0700 UTC 08 August 2020
Temperature: 40.0°C (104°F)
Dewpoint: 5.0°C (41°F) [RH = 12%]
Pressure (altimeter): 29.62 inches Hg (1003.0 mb)
Winds: from the N (350 degrees) at 9 MPH (8 knots; 4.1 m/s)
Visibility: 6 or more miles (10+ km)
Ceiling: ceiling and visibility are OK
Clouds: unknown
Weather: no significant weather observed at this time

METAR text: OERK 080600Z 33007KT CAVOK 38/06 Q1003 NOSIG
Conditions at: OERK (RIYADH/KING KHAL, SA) observed 0600 UTC 08 August 2020
Temperature: 38.0°C (100°F)
Dewpoint: 6.0°C (43°F) [RH = 14%]
Pressure (altimeter): 29.62 inches Hg (1003.0 mb)
Winds: from the NNW (330 degrees) at 8 MPH (7 knots; 3.6 m/s)
Visibility: 6 or more miles (10+ km)
Ceiling: ceiling and visibility are OK
Clouds: unknown
Weather: no significant weather observed at this time

METAR text: OERK 080500Z 32011KT CAVOK 35/04 Q1003 NOSIG
Conditions at: OERK (RIYADH/KING KHAL, SA) observed 0500 UTC 08 August 2020
Temperature: 35.0°C (95°F)
Dewpoint: 4.0°C (39°F) [RH = 14%]
Pressure (altimeter): 29.62 inches Hg (1003.0 mb)
Winds: from the NW (320 degrees) at 13 MPH (11 knots; 5.7 m/s)
Visibility: 6 or more miles (10+ km)
Ceiling: ceiling and visibility are OK
Clouds: unknown
Weather: no significant weather observed at this time

METAR text: OERK 080400Z 31005KT CAVOK 31/07 Q1003 NOSIG
Conditions at: OERK (RIYADH/KING KHAL, SA) observed 0400 UTC 08 August 2020
Temperature: 31.0°C (88°F)
Dewpoint: 7.0°C (45°F) [RH = 22%]
Pressure (altimeter): 29.62 inches Hg (1003.0 mb)
Winds: from the NW (310 degrees) at 6 MPH (5 knots; 2.6 m/s)
Visibility: 6 or more miles (10+ km)
Ceiling: ceiling and visibility are OK
Clouds: unknown
Weather: no significant weather observed at this time

METAR text: OERK 080300Z 29004KT CAVOK 29/05 Q1002 NOSIG
Conditions at: OERK (RIYADH/KING KHAL, SA) observed 0300 UTC 08 August 2020
Temperature: 29.0°C (84°F)
Dewpoint: 5.0°C (41°F) [RH = 22%]
Pressure (altimeter): 29.59 inches Hg (1002.0 mb)
Winds: from the WNW (290 degrees) at 5 MPH (4 knots; 2.1 m/s)
Visibility: 6 or more miles (10+ km)
Ceiling: ceiling and visibility are OK
Clouds: unknown
Weather: no significant weather observed at this time

METAR text: OERK 080200Z 30004KT CAVOK 29/05 Q1002 NOSIG
Conditions at: OERK (RIYADH/KING KHAL, SA) observed 0200 UTC 08 August 2020
Temperature: 29.0°C (84°F)
Dewpoint: 5.0°C (41°F) [RH = 22%]
Pressure (altimeter): 29.59 inches Hg (1002.0 mb)
Winds: from the WNW (300 degrees) at 5 MPH (4 knots; 2.1 m/s)
Visibility: 6 or more miles (10+ km)
Ceiling: ceiling and visibility are OK
Clouds: unknown
Weather: no significant weather observed at this time

METAR text: OERK 080100Z 28006KT CAVOK 30/04 Q1001 NOSIG
Conditions at: OERK (RIYADH/KING KHAL, SA) observed 0100 UTC 08 August 2020
Temperature: 30.0°C (86°F)
Dewpoint: 4.0°C (39°F) [RH = 19%]
Pressure (altimeter): 29.56 inches Hg (1001.0 mb)
Winds: from the W (280 degrees) at 7 MPH (6 knots; 3.1 m/s)
Visibility: 6 or more miles (10+ km)
Ceiling: ceiling and visibility are OK
Clouds: unknown
Weather: no significant weather observed at this time

METAR text: OERK 080000Z 30005KT CAVOK 30/06 Q1001 NOSIG
Conditions at: OERK (RIYADH/KING KHAL, SA) observed 0000 UTC 08 August 2020
Temperature: 30.0°C (86°F)
Dewpoint: 6.0°C (43°F) [RH = 22%]
Pressure (altimeter): 29.56 inches Hg (1001.0 mb)
Winds: from the WNW (300 degrees) at 6 MPH (5 knots; 2.6 m/s)
Visibility: 6 or more miles (10+ km)
Ceiling: ceiling and visibility are OK
Clouds: unknown
Weather: no significant weather observed at this time

METAR text: OERK 072300Z 29005KT CAVOK 32/05 Q1001 NOSIG
Conditions at: OERK (RIYADH/KING KHAL, SA) observed 2300 UTC 07 August 2020
Temperature: 32.0°C (90°F)
Dewpoint: 5.0°C (41°F) [RH = 18%]
Pressure (altimeter): 29.56 inches Hg (1001.0 mb)
Winds: from the WNW (290 degrees) at 6 MPH (5 knots; 2.6 m/s)
Visibility: 6 or more miles (10+ km)
Ceiling: ceiling and visibility are OK
Clouds: unknown
Weather: no significant weather observed at this time

METAR text: OERK 072200Z 30005KT CAVOK 33/06 Q1002 NOSIG
Conditions at: OERK (RIYADH/KING KHAL, SA) observed 2200 UTC 07 August 2020
Temperature: 33.0°C (91°F)
Dewpoint: 6.0°C (43°F) [RH = 19%]
Pressure (altimeter): 29.59 inches Hg (1002.0 mb)
Winds: from the WNW (300 degrees) at 6 MPH (5 knots; 2.6 m/s)
Visibility: 6 or more miles (10+ km)
Ceiling: ceiling and visibility are OK
Clouds: unknown
Weather: no significant weather observed at this time

METAR text: OERK 072100Z 28006KT CAVOK 33/05 Q1002 NOSIG
Conditions at: OERK (RIYADH/KING KHAL, SA) observed 2100 UTC 07 August 2020
Temperature: 33.0°C (91°F)
Dewpoint: 5.0°C (41°F) [RH = 17%]
Pressure (altimeter): 29.59 inches Hg (1002.0 mb)
Winds: from the W (280 degrees) at 7 MPH (6 knots; 3.1 m/s)
Visibility: 6 or more miles (10+ km)
Ceiling: ceiling and visibility are OK
Clouds: unknown
Weather: no significant weather observed at this time

METAR text: OERK 072000Z 34005KT CAVOK 35/06 Q1003 NOSIG
Conditions at: OERK (RIYADH/KING KHAL, SA) observed 2000 UTC 07 August 2020
Temperature: 35.0°C (95°F)
Dewpoint: 6.0°C (43°F) [RH = 17%]
Pressure (altimeter): 29.62 inches Hg (1003.0 mb)
Winds: from the NNW (340 degrees) at 6 MPH (5 knots; 2.6 m/s)
Visibility: 6 or more miles (10+ km)
Ceiling: ceiling and visibility are OK
Clouds: unknown
Weather: no significant weather observed at this time

METAR text: OERK 071900Z 35005KT CAVOK 36/07 Q1003 NOSIG
Conditions at: OERK (RIYADH/KING KHAL, SA) observed 1900 UTC 07 August 2020
Temperature: 36.0°C (97°F)
Dewpoint: 7.0°C (45°F) [RH = 17%]
Pressure (altimeter): 29.62 inches Hg (1003.0 mb)
Winds: from the N (350 degrees) at 6 MPH (5 knots; 2.6 m/s)
Visibility: 6 or more miles (10+ km)
Ceiling: ceiling and visibility are OK
Clouds: unknown
Weather: no significant weather observed at this time

METAR text: OERK 071800Z 36007KT CAVOK 36/06 Q1003 NOSIG
Conditions at: OERK (RIYADH/KING KHAL, SA) observed 1800 UTC 07 August 2020
Temperature: 36.0°C (97°F)
Dewpoint: 6.0°C (43°F) [RH = 16%]
Pressure (altimeter): 29.62 inches Hg (1003.0 mb)
Winds: from the N (360 degrees) at 8 MPH (7 knots; 3.6 m/s)
Visibility: 6 or more miles (10+ km)
Ceiling: ceiling and visibility are OK
Clouds: unknown
Weather: no significant weather observed at this time

METAR text: OERK 071700Z 34005KT 9000 NSC 38/07 Q1003 NOSIG
Conditions at: OERK (RIYADH/KING KHAL, SA) observed 1700 UTC 07 August 2020
Temperature: 38.0°C (100°F)
Dewpoint: 7.0°C (45°F) [RH = 15%]
Pressure (altimeter): 29.62 inches Hg (1003.0 mb)
Winds: from the NNW (340 degrees) at 6 MPH (5 knots; 2.6 m/s)
Visibility: 6 miles ( 9 km)
Ceiling: at least 12,000 feet AGL
Clouds: sky clear below 12,000 feet AGL
Weather: no significant weather observed at this time

METAR text: OERK 071600Z 34008KT 8000 NSC 39/04 Q1002 NOSIG
Conditions at: OERK (RIYADH/KING KHAL, SA) observed 1600 UTC 07 August 2020
Temperature: 39.0°C (102°F)
Dewpoint: 4.0°C (39°F) [RH = 12%]
Pressure (altimeter): 29.59 inches Hg (1002.0 mb)
Winds: from the NNW (340 degrees) at 9 MPH (8 knots; 4.1 m/s)
Visibility: 5 miles ( 8 km)
Ceiling: at least 12,000 feet AGL
Clouds: sky clear below 12,000 feet AGL
Weather: no significant weather observed at this time

METAR text: OERK 071500Z 33012KT 8000 NSC 40/04 Q1002 NOSIG
Conditions at: OERK (RIYADH/KING KHAL, SA) observed 1500 UTC 07 August 2020
Temperature: 40.0°C (104°F)
Dewpoint: 4.0°C (39°F) [RH = 11%]
Pressure (altimeter): 29.59 inches Hg (1002.0 mb)
Winds: from the NNW (330 degrees) at 14 MPH (12 knots; 6.2 m/s)
Visibility: 5 miles ( 8 km)
Ceiling: at least 12,000 feet AGL
Clouds: sky clear below 12,000 feet AGL
Weather: no significant weather observed at this time

METAR text: OERK 071400Z 34012KT 6000 NSC 41/04 Q1002 NOSIG
Conditions at: OERK (RIYADH/KING KHAL, SA) observed 1400 UTC 07 August 2020
Temperature: 41.0°C (106°F)
Dewpoint: 4.0°C (39°F) [RH = 10%]
Pressure (altimeter): 29.59 inches Hg (1002.0 mb)
Winds: from the NNW (340 degrees) at 14 MPH (12 knots; 6.2 m/s)
Visibility: 4 miles ( 6 km)
Ceiling: at least 12,000 feet AGL
Clouds: sky clear below 12,000 feet AGL
Weather: no significant weather observed at this time

METAR text: OERK 071300Z 35011KT 6000 NSC 42/04 Q1002 NOSIG
Conditions at: OERK (RIYADH/KING KHAL, SA) observed 1300 UTC 07 August 2020
Temperature: 42.0°C (108°F)
Dewpoint: 4.0°C (39°F) [RH = 10%]
Pressure (altimeter): 29.59 inches Hg (1002.0 mb)
Winds: from the N (350 degrees) at 13 MPH (11 knots; 5.7 m/s)
Visibility: 4 miles ( 6 km)
Ceiling: at least 12,000 feet AGL
Clouds: sky clear below 12,000 feet AGL
Weather: no significant weather observed at this time

METAR text: OERK 071200Z 34009KT 6000 NSC 43/06 Q1002 NOSIG
Conditions at: OERK (RIYADH/KING KHAL, SA) observed 1200 UTC 07 August 2020
Temperature: 43.0°C (109°F)
Dewpoint: 6.0°C (43°F) [RH = 11%]
Pressure (altimeter): 29.59 inches Hg (1002.0 mb)
Winds: from the NNW (340 degrees) at 10 MPH (9 knots; 4.6 m/s)
Visibility: 4 miles ( 6 km)
Ceiling: at least 12,000 feet AGL
Clouds: sky clear below 12,000 feet AGL
Weather: no significant weather observed at this time

METAR text: OERK 071100Z 33013KT 6000 NSC 42/05 Q1003 NOSIG
Conditions at: OERK (RIYADH/KING KHAL, SA) observed 1100 UTC 07 August 2020
Temperature: 42.0°C (108°F)
Dewpoint: 5.0°C (41°F) [RH = 11%]
Pressure (altimeter): 29.62 inches Hg (1003.0 mb)
Winds: from the NNW (330 degrees) at 15 MPH (13 knots; 6.7 m/s)
Visibility: 4 miles ( 6 km)
Ceiling: at least 12,000 feet AGL
Clouds: sky clear below 12,000 feet AGL
Weather: no significant weather observed at this time

METAR text: OERK 071000Z 32013KT 6000 NSC 42/04 Q1003 NOSIG
Conditions at: OERK (RIYADH/KING KHAL, SA) observed 1000 UTC 07 August 2020
Temperature: 42.0°C (108°F)
Dewpoint: 4.0°C (39°F) [RH = 10%]
Pressure (altimeter): 29.62 inches Hg (1003.0 mb)
Winds: from the NW (320 degrees) at 15 MPH (13 knots; 6.7 m/s)
Visibility: 4 miles ( 6 km)
Ceiling: at least 12,000 feet AGL
Clouds: sky clear below 12,000 feet AGL
Weather: no significant weather observed at this time

Forecast for: OERK (RIYADH/KING KHAL, SA)
Text: TAF OERK 081700Z 0818/0924 34010KT 7000 NSC
Forecast period: 1800 UTC 08 August 2020 to 0000 UTC 10 August 2020
Forecast type: FROM: standard forecast or significant change
Winds: from the NNW (340 degrees) at 12 MPH (10 knots; 5.1 m/s)
Visibility: 4 miles (7 km)
Ceiling: unknown
Clouds: missing
Weather: no significant weather forecast for this period